x

Columbia River Bar - 20nm West Of Columbia River Mouth (46029) Wave Buoy

1:50pm - Sun 22nd Apr 2018 All times are PDT. -7 hours from GMT.

  • Sig Wave height 7.5ft
  • Swell Direction
  • Peak Period 11s
  • Average Period 7s
  • Wind
    20mph, 22mph gusts
  • Sea Temp 51°f
  • Air Temp 49°f
  • Sea Pressure 1028.9mb
  • Columbia River Bar - 20nm West Of Columbia River Mouth
  • Columbia River Bar - 20nm West Of Columbia River Mouth

More Historic Weather Station data

Upgrade to MSW Pro to gain access to the past 30 days of data for over 8000 Wavebouys and Weather Stations around the globe.

Join

Comparision Forecast

View Surf forecast
   
Sun 04/22 1:50pm 7.5ft 11s 7s 20 22 mph 1028.9mb 51f 49f
12:50pm 8ft 11s 7s 18 22 mph 1029.2mb 51f 49f
11:50am 7.5ft 13s 7s 18 22 mph 1029.4mb 51f 48f
10:50am 7.5ft 14s 7s 18 20 mph 1029.3mb 51f 49f
9:50am 8ft 13s 7s 16 18 mph 1029.5mb 51f 48f
8:50am 8.5ft 14s 7s 16 20 mph 1029.7mb 50f 49f
7:50am 8ft 14s 7s 20 22 mph 1029.4mb 50f 48f
6:50am 8.5ft 13s 7s 20 22 mph 1029.2mb 50f 49f
5:50am 9ft 11s 8s 18 22 mph 1029.2mb 51f 49f
4:50am 8.5ft 9s 8s 18 20 mph 1029.4mb 50f 49f
3:50am 8.5ft 11s 8s 18 20 mph 1029.6mb 50f 49f
2:50am 8.5ft 9s 8s 16 20 mph 1029.9mb 50f 49f
1:50am 8ft 8s 8s 16 18 mph 1030.1mb 50f 49f
12:50am 8ft 9s 7s 18 20 mph 1030.2mb 51f 49f
Sat 04/21 11:50pm 8ft 11s 7s 18 20 mph 1030.2mb 51f 49f
10:50pm 8.5ft 14s 8s 18 20 mph 1030.7mb 51f 49f
9:50pm 8ft 11s 7s 16 20 mph 1031.1mb 52f 49f
8:50pm 8ft 10s 7s 18 20 mph 1030.8mb 52f 49f
7:50pm 8.5ft 9s 7s 16 20 mph 1030.8mb 52f 49f
6:50pm 9.5ft 9s 8s 16 18 mph 1031mb 52f 49f
5:50pm 9ft 10s 8s 11 13 mph 1031.2mb 52f 49f
4:50pm 9.5ft 10s 8s 11 16 mph 1031.4mb 53f 49f
3:50pm 10ft 10s 8s 9 11 mph 1031.6mb 53f 49f
2:50pm 10ft 10s 8s 9 11 mph 1032mb 52f 49f
1:50pm 10ft 11s 8s 9 11 mph 1032mb 52f 49f
12:50pm 10ft 10s 8s 9 11 mph 1032mb 51f 49f
11:50am 11ft 10s 8s 7 9 mph 1031.9mb 51f 49f
10:50am 10ft 9s 8s 11 16 mph 1031.5mb 51f 49f
9:50am 10.5ft 11s 8s 13 16 mph 1031mb 51f 49f
8:50am 9.5ft 10s 8s 11 13 mph 1030.2mb 51f 49f
7:50am 10ft 14s 8s 9 11 mph 1029.5mb 51f 49f
6:50am 9.5ft 14s 8s 11 16 mph 1028.8mb 51f 49f
5:50am 9.5ft 11s 7s 18 22 mph 1027.9mb 50f 48f
4:50am 9.5ft 15s 7s 18 22 mph 1027.2mb 50f 49f
3:50am 9ft 12s 7s 18 20 mph 1026.4mb 51f 49f
2:50am 8.5ft 13s 7s 20 25 mph 1025.3mb 51f 49f
1:50am 8ft 13s 7s 20 25 mph 1024.5mb 51f 50f
12:50am 8ft 13s 7s 22 27 mph 1023.7mb 51f 50f
Fri 04/20 11:50pm 8ft 11s 6s 22 27 mph 1022.6mb 51f 50f
10:50pm 8ft 15s 7s 25 29 mph 1022.3mb 51f 49f
9:50pm 7.5ft 14s 7s 20 25 mph 1022mb 51f 51f
8:50pm 7.5ft 12s 8s 18 22 mph 1022mb 51f 51f
7:50pm 7.5ft 11s 8s 18 22 mph 1022mb 51f 51f
6:50pm 7.5ft 12s 9s 16 18 mph 1022.5mb 51f 51f
5:50pm 7ft 16s 9s 16 18 mph 1022.7mb 51f 51f
4:50pm 6.5ft 12s 9s 13 16 mph 1023.2mb 52f 50f
3:50pm 6ft 13s 10s 13 13 mph 1023.4mb 52f 50f
2:50pm 6.5ft 13s 11s 11 13 mph 1023.6mb 51f 50f
1:50pm 6ft 13s 11s 11 11 mph 1023.7mb 51f 50f
12:50pm 5ft 13s 10s 9 11 mph 1024.5mb 52f 50f
11:50am 5ft 14s 10s 7 9 mph 1024.9mb 51f 50f
10:50am 5ft 13s 9s 4 7 mph 1024.6mb 51f 49f
9:50am 5ft 14s 9s  -  2 mph 1025.1mb 51f 50f
8:50am 5ft 13s 9s  -  2 mph 1025mb 51f 49f
7:50am 4.5ft 9s 8s 4 4 mph 1024.8mb 50f 49f
6:50am 5ft 11s 8s 4 4 mph 1024.7mb 50f 49f
5:50am 5ft 11s 9s  -  2 mph 1024.8mb 51f 49f
4:50am 5ft 11s 9s 2 2 mph 1025.1mb 51f 49f
3:50am 5ft 11s 9s 2 4 mph 1025.1mb 51f 49f
2:50am 5ft 10s 8s 4 4 mph 1025.6mb 50f 49f
1:50am 5.5ft 11s 8s 4 4 mph 1025.8mb 50f 50f
12:50am 5.5ft 11s 8s 4 7 mph 1026.2mb 51f 50f
Thu 04/19 11:50pm 5ft 11s 8s 7 9 mph 1026.1mb 52f 50f
10:50pm 5ft 11s 7s 9 11 mph 1026.5mb 52f 50f
9:50pm 5ft 11s 7s 9 11 mph 1026.3mb 52f 50f
8:50pm 5ft 10s 7s 9 11 mph 1026mb 52f 50f
7:50pm 6ft 11s 8s 13 16 mph 1025.8mb 52f 50f
6:50pm 6ft 12s 8s 9 11 mph 1025.8mb 52f 50f
5:50pm 6.5ft 11s 8s 11 13 mph 1026.1mb 52f 51f
4:50pm 7ft 12s 8s 13 16 mph 1026mb 52f 50f
3:50pm 6ft 11s 8s 11 13 mph 1026.1mb 52f 50f
2:50pm 6ft 11s 8s 11 13 mph 1026.2mb 52f 50f
1:50pm 6.5ft 11s 9s 13 13 mph 1026.3mb 51f 50f
12:50pm 6ft 12s 9s 11 13 mph 1026.3mb 51f 50f
11:50am 7.5ft 11s 9s 13 16 mph 1026.2mb 51f 50f
10:50am 7ft 12s 9s 13 13 mph 1025.8mb 51f 49f
9:50am 6ft 12s 8s 13 16 mph 1025.5mb 50f 49f
8:50am 6ft 12s 8s 13 16 mph 1025.4mb 50f 49f
7:50am 6ft 12s 8s 13 16 mph 1024.6mb 50f 50f
6:50am 6ft 12s 8s 13 13 mph 1023.8mb 50f 49f
5:50am 5.5ft 12s 8s 11 13 mph 1023.2mb 50f 49f
4:50am 5ft 13s 7s 11 13 mph 1023.2mb 50f 50f
3:50am 5ft 13s 7s 9 11 mph 1022.7mb 50f 50f
2:50am 5ft 12s 7s 9 9 mph 1022.6mb 50f 50f
1:50am 5ft 13s 7s 9 11 mph 1022.5mb 50f 50f
12:50am 5ft 13s 7s 11 11 mph 1022.6mb 50f 50f
Wed 04/18 10:50pm 6ft 14s 7s 13 16 mph 1022.3mb 51f 50f